Bicheno, Tasmania

10:50 PM AEST on October 01, 2014 (GMT +1000)
Launceston | Change Station
CLOSE
Current Station
Airport
Location: Launceston Airport,
Elevation: 561 ft
Nearby Weather Stations

Elev 561 ft 41.55 °S, 147.21 °E | Updated 20 minutes ago

Overcast
Overcast
48 °F
Feels Like 48 °F
N
15
Wind Variable Wind from North

Today
High -- | Low -- °F
--% Chance of Precip.
Yesterday
High -- | Low -- °F
Precip. -- in
5:41 AM 6:12 PM
Waxing Crescent, 47% visible
Pressure 30.01 in
Visibility 6.2 miles
Clouds Overcast 4900 ft
Dew Point 43 °F
Humidity 82%
Rainfall 0.00 in
Snow Depth Not available.
UV 0 out of 12
Pollen Not available.
Air Quality Not available.
Flu Activity Not available.
METAR YMLT 011230Z AUTO 35013KT 9999 // OVC049 09/06 Q1016

More Conditions Fewer Conditions

Pressure 30.01 in
Visibility 6.2 miles
Clouds Overcast 4900 ft
Dew Point 43 °F
Humidity 82%
Rainfall 0.00 in
Snow Depth Not available.
UV 0 out of 12
Pollen Not available.
Air Quality Not available.
Flu Activity Not available.
METAR YMLT 011230Z AUTO 35013KT 9999 // OVC049 09/06 Q1016

More Conditions Fewer Conditions

10-Day Weather Forecast

Almanac

Astronomy

Oct. 01, 2014 Rise Set
Actual Time 5:41 AM AEST 6:12 PM AEST
Civil Twilight 5:13 AM AEST 6:40 PM AEST
Nautical Twilight 4:40 AM AEST 7:13 PM AEST
Astronomical Twilight 4:06 AM AEST 7:47 PM AEST
Moon 10:08 AM AEST 12:04 AM AEST
Length of Visible Light 13h 27m
Length of Day
12h 31m
Tomorrow will be 2m 49s longer.
Waxing Crescent, 47% of the Moon is Illuminated
Today
Waxing Crescent
Oct 1
First Quarter
Oct 8
Full
Oct 15
Last Quarter
Oct 23
New

Yesterday's Extremes

Country Highs Country Lows

Community

WunderPhotos

Upload Photos

1,757,917 photos uploaded!

Nearby

Snow Depth

Not available.

Earthquake Activity

City Distance Mag. Time & Date
No recent earthquake activity has been reported nearby.
Minimum magnitude displayed is 2.5.

Coastal Water Temperatures

Place Temperature
No Stations Reporting

Nearby Weather Stations